createdAt,value
2018-12-01T00:03:18.286Z,100595.09
2018-12-01T00:08:40.166Z,100589.75
2018-12-01T00:14:57.555Z,100592.03
2018-12-01T00:22:41.461Z,100599.54
2018-12-01T00:27:44.830Z,100592.12
2018-12-01T00:30:15.835Z,100590.73
2018-12-01T00:37:58.637Z,100592.77
2018-12-01T00:40:31.137Z,100596.41
2018-12-01T00:48:20.497Z,100600.59
2018-12-01T01:09:08.103Z,100603.78
2018-12-01T01:29:55.942Z,100603.84
2018-12-01T01:37:42.439Z,100598.30
2018-12-01T01:45:23.868Z,100599.24
2018-12-01T01:50:29.220Z,100605.23
2018-12-01T02:00:41.592Z,100604.36
2018-12-01T02:05:47.858Z,100600.41
2018-12-01T02:10:51.259Z,100598.58
2018-12-01T02:15:54.683Z,100596.09
2018-12-01T02:26:23.042Z,100595.47
2018-12-01T02:31:26.868Z,100585.50
2018-12-01T02:36:30.815Z,100589.16
2018-12-01T02:39:03.996Z,100584.72
2018-12-01T02:45:08.165Z,100587.83
2018-12-01T02:52:50.425Z,100587.22
2018-12-01T02:55:23.031Z,100588.27
2018-12-01T02:57:55.730Z,100587.42
2018-12-01T03:00:28.214Z,100582.20
2018-12-01T03:03:00.838Z,100590.42
2018-12-01T03:08:03.939Z,100588.60
2018-12-01T03:10:36.547Z,100586.33
2018-12-01T03:13:09.696Z,100586.00
2018-12-01T03:18:15.599Z,100590.64
2018-12-01T03:23:39.735Z,100588.52
2018-12-01T03:31:12.675Z,100578.87
2018-12-01T03:33:40.572Z,100577.19
2018-12-01T03:38:41.939Z,100583.95
2018-12-01T03:43:48.449Z,100587.52
2018-12-01T03:46:21.379Z,100592.28
2018-12-01T03:53:54.805Z,100588.16
2018-12-01T03:58:58.298Z,100588.05
2018-12-01T04:06:30.167Z,100586.75
2018-12-01T04:09:22.901Z,100589.35
2018-12-01T04:11:53.436Z,100593.18
2018-12-01T04:22:02.350Z,100603.73
2018-12-01T04:27:22.977Z,100603.93
2018-12-01T04:34:58.093Z,100606.20
2018-12-01T04:42:34.498Z,100608.92
2018-12-01T04:50:10.378Z,100615.96
2018-12-01T04:52:43.802Z,100616.86
2018-12-01T04:55:20.743Z,100619.34
2018-12-01T05:02:58.663Z,100632.11
2018-12-01T05:10:38.570Z,100645.80
2018-12-01T05:13:11.325Z,100651.38
2018-12-01T05:15:39.274Z,100651.91
2018-12-01T05:20:43.791Z,100651.27
2018-12-01T05:41:14.261Z,100646.50
2018-12-01T05:54:16.652Z,100639.84
2018-12-01T06:18:12.860Z,100640.82
2018-12-01T06:23:30.940Z,100637.32
2018-12-01T06:39:32.517Z,100617.50
2018-12-01T06:55:31.548Z,100616.05
2018-12-01T06:58:22.818Z,100611.22
2018-12-01T08:05:14.339Z,100634.09
2018-12-01T08:15:42.342Z,100628.14
2018-12-01T08:49:45.528Z,100630.05
2018-12-01T08:54:52.983Z,100619.13
2018-12-01T09:02:34.324Z,100616.48
2018-12-01T09:34:07.879Z,100644.66
2018-12-01T09:36:40.417Z,100642.58
2018-12-01T09:52:39.698Z,100642.11
2018-12-01T10:10:51.123Z,100629.19
2018-12-01T10:16:00.434Z,100613.53
2018-12-01T10:45:32.892Z,100564.20
2018-12-01T10:55:59.313Z,100559.33
2018-12-01T12:22:36.190Z,100472.88
2018-12-01T13:16:39.507Z,100427.07
2018-12-01T14:12:43.675Z,100381.37
2018-12-01T14:15:30.856Z,100388.20
2018-12-01T14:18:04.596Z,100380.91
2018-12-01T14:20:39.379Z,100384.59
2018-12-01T14:23:12.148Z,100378.36
2018-12-01T14:25:46.427Z,100374.75
2018-12-01T14:28:19.959Z,100385.84
2018-12-01T14:30:52.723Z,100386.75
2018-12-01T14:33:28.785Z,100387.36
2018-12-01T14:36:01.430Z,100378.00
2018-12-01T14:38:38.728Z,100381.07
2018-12-01T14:41:11.324Z,100375.75
2018-12-01T14:43:45.836Z,100372.08
2018-12-01T14:46:18.514Z,100368.16
2018-12-01T14:48:51.477Z,100370.92
2018-12-01T14:51:24.203Z,100363.39
2018-12-01T14:53:57.325Z,100359.87
2018-12-01T14:56:30.001Z,100359.26
2018-12-01T14:59:03.269Z,100359.02
2018-12-01T15:01:36.284Z,100357.56
2018-12-01T15:04:11.596Z,100351.94
2018-12-01T15:06:44.166Z,100346.11
2018-12-01T15:09:17.515Z,100351.79
2018-12-01T15:11:50.422Z,100342.58
2018-12-01T15:14:23.024Z,100343.04
2018-12-01T15:16:55.607Z,100335.14
2018-12-01T15:19:31.690Z,100340.67
2018-12-01T15:22:09.457Z,100338.36
2018-12-01T15:24:42.365Z,100338.22
2018-12-01T15:27:14.874Z,100335.14
2018-12-01T15:29:47.522Z,100335.14
2018-12-01T15:32:19.972Z,100342.50
2018-12-01T15:34:52.530Z,100335.75
2018-12-01T15:37:25.496Z,100333.69
2018-12-01T15:39:58.004Z,100334.59
2018-12-01T15:42:30.548Z,100334.81
2018-12-01T15:45:04.683Z,100328.92
2018-12-01T15:47:37.219Z,100323.16
2018-12-01T15:50:16.235Z,100325.91
2018-12-01T15:52:51.696Z,100322.45
2018-12-01T15:55:25.122Z,100318.78
2018-12-01T15:57:57.717Z,100311.09
2018-12-01T16:00:31.705Z,100310.19
2018-12-01T16:03:04.642Z,100302.02
2018-12-01T16:05:37.494Z,100299.34
2018-12-01T16:08:11.883Z,100297.64
2018-12-01T16:10:44.566Z,100291.21
2018-12-01T16:13:19.994Z,100295.88
2018-12-01T16:16:13.659Z,100291.91
2018-12-01T16:18:50.102Z,100287.05
2018-12-01T16:21:22.977Z,100281.98
2018-12-01T16:23:55.768Z,100290.75
2018-12-01T16:26:28.643Z,100280.92
2018-12-01T16:29:05.422Z,100276.84
2018-12-01T16:31:38.431Z,100276.70
2018-12-01T16:34:11.029Z,100273.54
2018-12-01T16:36:47.956Z,100268.11
2018-12-01T16:39:20.735Z,100264.86
2018-12-01T16:41:55.778Z,100255.20
2018-12-01T16:44:28.410Z,100266.50
2018-12-01T16:47:01.277Z,100259.73
2018-12-01T16:49:33.934Z,100261.13
2018-12-01T16:52:06.857Z,100254.59
2018-12-01T16:54:40.256Z,100250.29
2018-12-01T16:57:12.891Z,100253.60
2018-12-01T16:59:45.512Z,100251.20
2018-12-01T17:02:18.408Z,100252.14
2018-12-01T17:04:51.451Z,100247.92
2018-12-01T17:07:24.055Z,100253.51
2018-12-01T17:10:04.421Z,100249.92
2018-12-01T17:12:37.021Z,100252.90
2018-12-01T17:15:17.299Z,100240.95
2018-12-01T17:17:49.988Z,100236.73
2018-12-01T17:20:22.895Z,100234.11
2018-12-01T17:23:00.062Z,100221.52
2018-12-01T17:25:32.583Z,100226.05
2018-12-01T17:28:05.307Z,100226.11
2018-12-01T17:30:37.970Z,100214.23
2018-12-01T17:33:15.586Z,100211.08
2018-12-01T17:35:48.687Z,100207.84
2018-12-01T17:38:23.069Z,100204.44
2018-12-01T17:41:23.554Z,100201.62
2018-12-01T17:44:11.683Z,100194.64
2018-12-01T17:46:44.370Z,100192.79
2018-12-01T17:49:18.201Z,100171.77
2018-12-01T17:51:51.823Z,100178.59
2018-12-01T17:54:24.255Z,100173.38
2018-12-01T17:56:57.742Z,100167.30
2018-12-01T17:59:30.357Z,100158.32
2018-12-01T18:02:02.796Z,100154.66
2018-12-01T18:04:35.776Z,100135.69
2018-12-01T18:07:09.880Z,100134.84
2018-12-01T18:09:46.183Z,100131.33
2018-12-01T18:12:18.721Z,100119.65
2018-12-01T18:14:51.788Z,100113.67
2018-12-01T18:17:24.929Z,100114.98
2018-12-01T18:19:57.656Z,100108.10
2018-12-01T18:22:30.302Z,100095.27
2018-12-01T18:25:02.943Z,100087.84
2018-12-01T18:27:35.367Z,100089.20
2018-12-01T18:30:20.495Z,100086.92
2018-12-01T18:32:53.660Z,100084.68
2018-12-01T18:35:26.673Z,100082.07
2018-12-01T18:37:59.283Z,100064.07
2018-12-01T18:40:31.981Z,100074.04
2018-12-01T18:43:04.507Z,100063.37
2018-12-01T18:45:37.168Z,100068.03
2018-12-01T18:48:13.241Z,100063.30
2018-12-01T18:50:46.645Z,100063.37
2018-12-01T18:53:20.109Z,100063.76
2018-12-01T18:56:03.862Z,100058.15
2018-12-01T18:58:36.909Z,100054.33
2018-12-01T19:01:11.644Z,100049.17
2018-12-01T19:03:44.547Z,100049.72
2018-12-01T19:06:17.135Z,100048.13
2018-12-01T19:08:49.726Z,100036.14
2018-12-01T19:11:22.342Z,100020.80
2018-12-01T19:13:55.042Z,100016.69
2018-12-01T19:16:27.542Z,100012.06
2018-12-01T19:19:00.179Z,100003.19
2018-12-01T19:21:32.777Z,99999.73
2018-12-01T19:24:05.220Z,99986.55
2018-12-01T19:26:38.101Z,99994.67
2018-12-01T19:29:11.228Z,99984.25
2018-12-01T19:31:48.710Z,99970.81
2018-12-01T19:34:22.261Z,99973.06
2018-12-01T19:36:54.813Z,99965.00
2018-12-01T19:39:28.803Z,99946.48
2018-12-01T19:42:01.378Z,99946.85
2018-12-01T19:44:33.908Z,99940.03
2018-12-01T19:47:06.371Z,99953.43
2018-12-01T19:49:39.079Z,99948.61
2018-12-01T19:52:11.698Z,99944.41
2018-12-01T19:54:44.249Z,99946.91
2018-12-01T19:57:16.940Z,99935.58
2018-12-01T19:59:52.323Z,99931.50
2018-12-01T20:02:24.855Z,99938.34
2018-12-01T20:04:58.107Z,99929.08
2018-12-01T20:07:31.050Z,99923.55
2018-12-01T20:10:04.571Z,99925.86
2018-12-01T20:12:37.072Z,99918.53
2018-12-01T20:15:26.196Z,99915.27
2018-12-01T20:18:00.522Z,99913.61
2018-12-01T20:20:35.299Z,99908.95
2018-12-01T20:23:12.374Z,99906.99
2018-12-01T20:25:54.131Z,99907.88
2018-12-01T20:28:26.978Z,99906.80
2018-12-01T20:30:59.715Z,99917.72
2018-12-01T20:33:32.451Z,99912.82
2018-12-01T20:36:31.322Z,99910.34
2018-12-01T20:39:40.091Z,99902.89
2018-12-01T20:42:15.089Z,99903.38
2018-12-01T20:44:47.752Z,99897.97
2018-12-01T20:47:20.684Z,99900.22
2018-12-01T20:49:53.416Z,99890.64
2018-12-01T20:52:26.035Z,99887.54
2018-12-01T20:55:00.406Z,99878.97
2018-12-01T20:57:36.049Z,99887.08
2018-12-01T21:00:12.195Z,99885.58
2018-12-01T21:02:46.781Z,99872.16
2018-12-01T21:05:23.220Z,99886.23
2018-12-01T21:08:02.182Z,99879.66
2018-12-01T21:10:40.382Z,99886.30
2018-12-01T21:13:17.694Z,99871.83
2018-12-01T21:15:51.909Z,99862.16
2018-12-01T21:18:25.414Z,99875.81
2018-12-01T21:20:59.804Z,99867.98
2018-12-01T21:23:33.375Z,99880.63
2018-12-01T21:26:10.277Z,99863.09
2018-12-01T21:28:45.226Z,99854.33
2018-12-01T21:31:21.459Z,99856.31
2018-12-01T21:33:54.088Z,99847.36
2018-12-01T21:36:27.123Z,99854.56
2018-12-01T21:38:59.897Z,99838.23
2018-12-01T21:41:32.816Z,99849.24
2018-12-01T21:44:06.652Z,99847.70
2018-12-01T21:49:38.946Z,99831.61
2018-12-01T21:52:14.334Z,99827.37
2018-12-01T21:54:47.454Z,99826.72
2018-12-01T21:57:25.599Z,99830.14
2018-12-01T21:59:59.394Z,99823.91
2018-12-01T22:02:33.026Z,99817.66
2018-12-01T22:05:06.608Z,99813.75
2018-12-01T22:07:39.552Z,99818.41
2018-12-01T22:10:19.153Z,99814.98
2018-12-01T22:12:54.396Z,99820.20
2018-12-01T22:15:32.311Z,99820.27
2018-12-01T22:18:06.412Z,99816.41
2018-12-01T22:20:39.101Z,99821.51
2018-12-01T22:23:15.705Z,99819.94
2018-12-01T22:25:51.129Z,99830.27
2018-12-01T22:28:23.860Z,99824.98
2018-12-01T22:30:56.797Z,99827.33
2018-12-01T22:33:37.658Z,99828.23
2018-12-01T22:36:13.445Z,99821.66
2018-12-01T22:38:45.802Z,99827.91
2018-12-01T22:41:18.476Z,99825.01
2018-12-01T22:43:51.035Z,99817.93
2018-12-01T22:46:25.646Z,99814.86
2018-12-01T22:49:00.452Z,99810.30
2018-12-01T22:51:33.089Z,99811.34
2018-12-01T22:54:09.963Z,99806.75
2018-12-01T22:56:52.650Z,99800.52
2018-12-01T22:59:26.294Z,99798.76
2018-12-01T23:01:58.919Z,99796.88
2018-12-01T23:04:35.220Z,99800.33
2018-12-01T23:07:07.843Z,99790.25
2018-12-01T23:09:41.234Z,99793.93
2018-12-01T23:12:14.616Z,99790.09
2018-12-01T23:14:47.152Z,99791.51
2018-12-01T23:17:20.342Z,99795.87
2018-12-01T23:19:52.859Z,99793.08
2018-12-01T23:22:27.595Z,99781.52
2018-12-01T23:25:08.961Z,99787.14
2018-12-01T23:27:42.164Z,99792.91
2018-12-01T23:30:31.540Z,99794.51
2018-12-01T23:33:26.900Z,99793.66
2018-12-01T23:35:59.671Z,99789.02
2018-12-01T23:38:32.557Z,99785.32
2018-12-01T23:41:05.830Z,99776.55
2018-12-01T23:43:39.035Z,99768.89
2018-12-01T23:46:11.743Z,99766.11
2018-12-01T23:48:44.233Z,99756.80
2018-12-01T23:51:16.841Z,99750.56
2018-12-01T23:53:49.466Z,99748.98
2018-12-01T23:56:22.170Z,99747.53
2018-12-01T23:58:55.043Z,99746.79
